sensor_id;sensor_type;location;lat;lon;timestamp;P1;durP1;ratioP1;P2;durP2;ratioP2
31282;SDS011;17915;52.540;13.604;2022-11-15T00:01:32;66.27;;;32.73;;
31282;SDS011;17915;52.540;13.604;2022-11-15T00:03:57;62.50;;;33.00;;
31282;SDS011;17915;52.540;13.604;2022-11-15T00:06:22;67.47;;;33.60;;
31282;SDS011;17915;52.540;13.604;2022-11-15T00:08:48;65.90;;;31.67;;
31282;SDS011;17915;52.540;13.604;2022-11-15T00:11:13;60.10;;;29.80;;
31282;SDS011;17915;52.540;13.604;2022-11-15T00:13:39;63.83;;;31.30;;
31282;SDS011;17915;52.540;13.604;2022-11-15T00:16:04;66.22;;;32.53;;
31282;SDS011;17915;52.540;13.604;2022-11-15T00:18:30;64.47;;;31.33;;
31282;SDS011;17915;52.540;13.604;2022-11-15T00:20:56;65.50;;;33.33;;
31282;SDS011;17915;52.540;13.604;2022-11-15T00:23:27;78.68;;;34.95;;
31282;SDS011;17915;52.540;13.604;2022-11-15T00:25:56;71.57;;;35.07;;
31282;SDS011;17915;52.540;13.604;2022-11-15T00:28:22;65.05;;;32.97;;
31282;SDS011;17915;52.540;13.604;2022-11-15T00:30:48;74.87;;;34.57;;
31282;SDS011;17915;52.540;13.604;2022-11-15T00:33:13;70.50;;;34.40;;
31282;SDS011;17915;52.540;13.604;2022-11-15T00:35:38;79.57;;;35.80;;
31282;SDS011;17915;52.540;13.604;2022-11-15T00:38:04;67.67;;;35.03;;
31282;SDS011;17915;52.540;13.604;2022-11-15T00:40:29;65.57;;;33.27;;
31282;SDS011;17915;52.540;13.604;2022-11-15T00:42:55;69.18;;;31.52;;
31282;SDS011;17915;52.540;13.604;2022-11-15T00:45:21;76.43;;;34.07;;
31282;SDS011;17915;52.540;13.604;2022-11-15T00:47:46;66.50;;;33.27;;
31282;SDS011;17915;52.540;13.604;2022-11-15T00:50:12;70.57;;;35.20;;
31282;SDS011;17915;52.540;13.604;2022-11-15T00:52:38;63.92;;;32.53;;
31282;SDS011;17915;52.540;13.604;2022-11-15T00:55:03;69.27;;;32.80;;
31282;SDS011;17915;52.540;13.604;2022-11-15T00:57:29;74.15;;;35.00;;
31282;SDS011;17915;52.540;13.604;2022-11-15T00:59:54;65.07;;;31.90;;
31282;SDS011;17915;52.540;13.604;2022-11-15T01:02:20;70.20;;;32.93;;
31282;SDS011;17915;52.540;13.604;2022-11-15T01:04:45;64.73;;;34.97;;
31282;SDS011;17915;52.540;13.604;2022-11-15T01:07:11;70.73;;;34.13;;
31282;SDS011;17915;52.540;13.604;2022-11-15T01:09:36;74.77;;;35.47;;
31282;SDS011;17915;52.540;13.604;2022-11-15T01:12:01;68.47;;;32.67;;
31282;SDS011;17915;52.540;13.604;2022-11-15T01:14:27;64.37;;;32.50;;
31282;SDS011;17915;52.540;13.604;2022-11-15T01:16:52;74.57;;;37.63;;
31282;SDS011;17915;52.540;13.604;2022-11-15T01:19:18;72.43;;;34.03;;
31282;SDS011;17915;52.540;13.604;2022-11-15T01:21:43;74.87;;;35.63;;
31282;SDS011;17915;52.540;13.604;2022-11-15T01:24:10;73.17;;;33.63;;
31282;SDS011;17915;52.540;13.604;2022-11-15T01:26:37;69.50;;;33.38;;
31282;SDS011;17915;52.540;13.604;2022-11-15T01:29:02;73.10;;;33.20;;
31282;SDS011;17915;52.540;13.604;2022-11-15T01:31:27;74.13;;;33.80;;
31282;SDS011;17915;52.540;13.604;2022-11-15T01:33:53;63.50;;;31.77;;
31282;SDS011;17915;52.540;13.604;2022-11-15T01:36:19;75.20;;;34.27;;
31282;SDS011;17915;52.540;13.604;2022-11-15T01:38:55;71.95;;;31.90;;
31282;SDS011;17915;52.540;13.604;2022-11-15T01:41:23;63.80;;;31.90;;
31282;SDS011;17915;52.540;13.604;2022-11-15T01:43:51;72.40;;;35.65;;
31282;SDS011;17915;52.540;13.604;2022-11-15T01:46:22;67.38;;;33.85;;
31282;SDS011;17915;52.540;13.604;2022-11-15T01:48:51;70.78;;;34.53;;
31282;SDS011;17915;52.540;13.604;2022-11-15T01:51:17;73.07;;;35.33;;
31282;SDS011;17915;52.540;13.604;2022-11-15T01:53:45;66.40;;;32.40;;
31282;SDS011;17915;52.540;13.604;2022-11-15T01:56:13;70.05;;;33.13;;
31282;SDS011;17915;52.540;13.604;2022-11-15T01:58:42;69.70;;;35.30;;
31282;SDS011;17915;52.540;13.604;2022-11-15T02:01:07;68.57;;;35.33;;
31282;SDS011;17915;52.540;13.604;2022-11-15T02:03:49;71.13;;;32.00;;
31282;SDS011;17915;52.540;13.604;2022-11-15T02:06:17;71.85;;;33.08;;
31282;SDS011;17915;52.540;13.604;2022-11-15T02:08:44;66.40;;;33.50;;
31282;SDS011;17915;52.540;13.604;2022-11-15T02:11:09;69.65;;;33.70;;
31282;SDS011;17915;52.540;13.604;2022-11-15T02:13:35;71.10;;;37.37;;
31282;SDS011;17915;52.540;13.604;2022-11-15T02:16:18;69.65;;;35.05;;
31282;SDS011;17915;52.540;13.604;2022-11-15T02:21:47;74.65;;;35.13;;
31282;SDS011;17915;52.540;13.604;2022-11-15T02:30:43;73.90;;;32.88;;
31282;SDS011;17915;52.540;13.604;2022-11-15T02:44:05;65.82;;;31.77;;
31282;SDS011;17915;52.540;13.604;2022-11-15T02:46:49;62.28;;;32.53;;
31282;SDS011;17915;52.540;13.604;2022-11-15T02:49:36;62.88;;;31.20;;
31282;SDS011;17915;52.540;13.604;2022-11-15T02:52:02;65.15;;;33.35;;
31282;SDS011;17915;52.540;13.604;2022-11-15T02:54:29;62.97;;;31.97;;
31282;SDS011;17915;52.540;13.604;2022-11-15T02:57:06;53.45;;;28.90;;
31282;SDS011;17915;52.540;13.604;2022-11-15T03:04:39;61.85;;;31.20;;
31282;SDS011;17915;52.540;13.604;2022-11-15T03:12:25;58.15;;;28.10;;
31282;SDS011;17915;52.540;13.604;2022-11-15T03:14:57;66.63;;;34.17;;
31282;SDS011;17915;52.540;13.604;2022-11-15T03:17:25;63.42;;;31.55;;
31282;SDS011;17915;52.540;13.604;2022-11-15T03:19:54;65.50;;;32.45;;
31282;SDS011;17915;52.540;13.604;2022-11-15T03:22:22;56.05;;;30.60;;
31282;SDS011;17915;52.540;13.604;2022-11-15T03:24:57;59.83;;;30.65;;
31282;SDS011;17915;52.540;13.604;2022-11-15T03:27:25;58.55;;;31.10;;
31282;SDS011;17915;52.540;13.604;2022-11-15T03:29:59;59.17;;;31.63;;
31282;SDS011;17915;52.540;13.604;2022-11-15T03:32:32;65.47;;;31.73;;
31282;SDS011;17915;52.540;13.604;2022-11-15T03:35:02;63.40;;;32.55;;
31282;SDS011;17915;52.540;13.604;2022-11-15T03:38:14;62.35;;;32.13;;
31282;SDS011;17915;52.540;13.604;2022-11-15T03:40:32;68.88;;;33.70;;
31282;SDS011;17915;52.540;13.604;2022-11-15T03:43:03;61.50;;;30.92;;
31282;SDS011;17915;52.540;13.604;2022-11-15T03:45:34;56.03;;;28.92;;
31282;SDS011;17915;52.540;13.604;2022-11-15T03:48:02;67.35;;;35.05;;
31282;SDS011;17915;52.540;13.604;2022-11-15T03:50:32;58.80;;;31.25;;
31282;SDS011;17915;52.540;13.604;2022-11-15T03:52:58;61.20;;;33.33;;
31282;SDS011;17915;52.540;13.604;2022-11-15T03:55:24;62.17;;;32.50;;
31282;SDS011;17915;52.540;13.604;2022-11-15T03:57:50;61.30;;;31.83;;
31282;SDS011;17915;52.540;13.604;2022-11-15T04:00:18;63.85;;;32.10;;
31282;SDS011;17915;52.540;13.604;2022-11-15T04:02:44;78.50;;;34.37;;
31282;SDS011;17915;52.540;13.604;2022-11-15T04:05:09;65.10;;;31.20;;
31282;SDS011;17915;52.540;13.604;2022-11-15T04:07:35;64.30;;;32.53;;
31282;SDS011;17915;52.540;13.604;2022-11-15T04:10:00;64.10;;;33.07;;
31282;SDS011;17915;52.540;13.604;2022-11-15T04:12:38;62.33;;;31.63;;
31282;SDS011;17915;52.540;13.604;2022-11-15T04:15:10;68.80;;;34.22;;
31282;SDS011;17915;52.540;13.604;2022-11-15T04:17:44;63.45;;;32.50;;
31282;SDS011;17915;52.540;13.604;2022-11-15T04:25:42;72.80;;;33.67;;
31282;SDS011;17915;52.540;13.604;2022-11-15T04:28:08;69.00;;;33.90;;
31282;SDS011;17915;52.540;13.604;2022-11-15T04:30:34;77.63;;;35.10;;
31282;SDS011;17915;52.540;13.604;2022-11-15T04:32:59;66.60;;;34.13;;
31282;SDS011;17915;52.540;13.604;2022-11-15T04:35:24;66.93;;;34.10;;
31282;SDS011;17915;52.540;13.604;2022-11-15T04:37:50;65.27;;;32.13;;
31282;SDS011;17915;52.540;13.604;2022-11-15T04:40:15;58.80;;;31.47;;
31282;SDS011;17915;52.540;13.604;2022-11-15T04:42:41;61.17;;;32.57;;
31282;SDS011;17915;52.540;13.604;2022-11-15T04:45:10;60.78;;;34.00;;
31282;SDS011;17915;52.540;13.604;2022-11-15T04:47:35;66.17;;;32.30;;
31282;SDS011;17915;52.540;13.604;2022-11-15T04:50:01;60.40;;;31.53;;
31282;SDS011;17915;52.540;13.604;2022-11-15T04:52:26;66.50;;;32.73;;
31282;SDS011;17915;52.540;13.604;2022-11-15T04:54:52;70.70;;;34.77;;
31282;SDS011;17915;52.540;13.604;2022-11-15T04:57:17;63.07;;;30.63;;
31282;SDS011;17915;52.540;13.604;2022-11-15T04:59:42;61.03;;;31.93;;
31282;SDS011;17915;52.540;13.604;2022-11-15T05:02:08;63.37;;;32.33;;
31282;SDS011;17915;52.540;13.604;2022-11-15T05:04:33;62.23;;;33.57;;
31282;SDS011;17915;52.540;13.604;2022-11-15T05:06:58;67.63;;;31.80;;
31282;SDS011;17915;52.540;13.604;2022-11-15T05:09:24;67.23;;;34.37;;
31282;SDS011;17915;52.540;13.604;2022-11-15T05:11:49;58.67;;;30.93;;
31282;SDS011;17915;52.540;13.604;2022-11-15T05:14:15;58.63;;;30.10;;
31282;SDS011;17915;52.540;13.604;2022-11-15T05:16:40;56.37;;;31.40;;
31282;SDS011;17915;52.540;13.604;2022-11-15T05:19:06;57.03;;;30.70;;
31282;SDS011;17915;52.540;13.604;2022-11-15T05:21:32;57.10;;;31.07;;
31282;SDS011;17915;52.540;13.604;2022-11-15T05:23:57;61.53;;;31.15;;
31282;SDS011;17915;52.540;13.604;2022-11-15T05:26:23;52.80;;;29.07;;
31282;SDS011;17915;52.540;13.604;2022-11-15T05:28:52;50.10;;;27.83;;
31282;SDS011;17915;52.540;13.604;2022-11-15T05:31:21;55.13;;;30.13;;
31282;SDS011;17915;52.540;13.604;2022-11-15T05:33:46;54.85;;;30.60;;
31282;SDS011;17915;52.540;13.604;2022-11-15T05:38:48;54.70;;;30.92;;
31282;SDS011;17915;52.540;13.604;2022-11-15T05:43:39;57.38;;;29.10;;
31282;SDS011;17915;52.540;13.604;2022-11-15T05:46:06;50.80;;;28.83;;
31282;SDS011;17915;52.540;13.604;2022-11-15T05:48:33;54.37;;;30.63;;
31282;SDS011;17915;52.540;13.604;2022-11-15T05:50:59;53.38;;;29.40;;
31282;SDS011;17915;52.540;13.604;2022-11-15T05:53:25;53.53;;;29.20;;
31282;SDS011;17915;52.540;13.604;2022-11-15T05:55:50;59.73;;;31.47;;
31282;SDS011;17915;52.540;13.604;2022-11-15T05:58:16;63.10;;;30.07;;
31282;SDS011;17915;52.540;13.604;2022-11-15T06:00:42;53.08;;;28.58;;
31282;SDS011;17915;52.540;13.604;2022-11-15T06:03:08;57.23;;;28.53;;
31282;SDS011;17915;52.540;13.604;2022-11-15T06:05:34;60.22;;;32.08;;
31282;SDS011;17915;52.540;13.604;2022-11-15T06:07:59;52.50;;;28.77;;
31282;SDS011;17915;52.540;13.604;2022-11-15T06:10:25;57.70;;;29.80;;
31282;SDS011;17915;52.540;13.604;2022-11-15T06:13:00;55.23;;;30.03;;
31282;SDS011;17915;52.540;13.604;2022-11-15T06:15:27;56.00;;;30.70;;
31282;SDS011;17915;52.540;13.604;2022-11-15T06:17:52;55.77;;;28.93;;
31282;SDS011;17915;52.540;13.604;2022-11-15T06:20:22;60.25;;;29.23;;
31282;SDS011;17915;52.540;13.604;2022-11-15T06:22:48;55.55;;;28.77;;
31282;SDS011;17915;52.540;13.604;2022-11-15T06:25:14;56.50;;;30.37;;
31282;SDS011;17915;52.540;13.604;2022-11-15T06:27:39;55.23;;;31.17;;
31282;SDS011;17915;52.540;13.604;2022-11-15T06:30:05;64.17;;;31.97;;
31282;SDS011;17915;52.540;13.604;2022-11-15T06:32:30;61.55;;;30.90;;
31282;SDS011;17915;52.540;13.604;2022-11-15T06:34:56;45.63;;;27.43;;
31282;SDS011;17915;52.540;13.604;2022-11-15T06:37:21;50.23;;;29.43;;
31282;SDS011;17915;52.540;13.604;2022-11-15T06:39:46;55.57;;;28.40;;
31282;SDS011;17915;52.540;13.604;2022-11-15T06:42:12;49.83;;;27.43;;
31282;SDS011;17915;52.540;13.604;2022-11-15T06:44:37;51.20;;;27.63;;
31282;SDS011;17915;52.540;13.604;2022-11-15T06:47:02;59.00;;;31.73;;
31282;SDS011;17915;52.540;13.604;2022-11-15T06:49:28;57.43;;;29.57;;
31282;SDS011;17915;52.540;13.604;2022-11-15T06:51:53;57.63;;;28.60;;
31282;SDS011;17915;52.540;13.604;2022-11-15T06:54:19;55.17;;;29.57;;
31282;SDS011;17915;52.540;13.604;2022-11-15T06:59:11;46.92;;;26.58;;
31282;SDS011;17915;52.540;13.604;2022-11-15T07:01:36;51.70;;;28.70;;
31282;SDS011;17915;52.540;13.604;2022-11-15T07:04:01;54.20;;;27.90;;
31282;SDS011;17915;52.540;13.604;2022-11-15T07:06:27;61.87;;;28.33;;
31282;SDS011;17915;52.540;13.604;2022-11-15T07:08:52;59.13;;;31.83;;
31282;SDS011;17915;52.540;13.604;2022-11-15T07:11:18;54.47;;;29.20;;
31282;SDS011;17915;52.540;13.604;2022-11-15T07:13:43;63.17;;;29.47;;
31282;SDS011;17915;52.540;13.604;2022-11-15T07:16:09;52.93;;;28.50;;
31282;SDS011;17915;52.540;13.604;2022-11-15T07:21:02;49.13;;;27.88;;
31282;SDS011;17915;52.540;13.604;2022-11-15T07:23:28;56.85;;;29.67;;
31282;SDS011;17915;52.540;13.604;2022-11-15T07:25:55;57.40;;;28.83;;
31282;SDS011;17915;52.540;13.604;2022-11-15T07:28:21;53.67;;;30.25;;
31282;SDS011;17915;52.540;13.604;2022-11-15T07:30:47;53.90;;;30.90;;
31282;SDS011;17915;52.540;13.604;2022-11-15T07:33:12;51.13;;;29.50;;
31282;SDS011;17915;52.540;13.604;2022-11-15T07:35:37;59.60;;;30.00;;
31282;SDS011;17915;52.540;13.604;2022-11-15T07:38:03;48.73;;;27.93;;
31282;SDS011;17915;52.540;13.604;2022-11-15T07:40:29;51.93;;;27.00;;
31282;SDS011;17915;52.540;13.604;2022-11-15T07:43:01;54.33;;;31.67;;
31282;SDS011;17915;52.540;13.604;2022-11-15T07:45:28;54.85;;;28.27;;
31282;SDS011;17915;52.540;13.604;2022-11-15T07:47:54;50.57;;;27.40;;
31282;SDS011;17915;52.540;13.604;2022-11-15T07:50:21;48.78;;;28.13;;
31282;SDS011;17915;52.540;13.604;2022-11-15T07:52:46;57.20;;;30.10;;
31282;SDS011;17915;52.540;13.604;2022-11-15T07:55:12;48.97;;;28.10;;
31282;SDS011;17915;52.540;13.604;2022-11-15T07:57:37;51.70;;;28.27;;
31282;SDS011;17915;52.540;13.604;2022-11-15T08:00:05;54.43;;;30.97;;
31282;SDS011;17915;52.540;13.604;2022-11-15T08:02:32;51.83;;;30.60;;
31282;SDS011;17915;52.540;13.604;2022-11-15T08:04:57;50.13;;;28.37;;
31282;SDS011;17915;52.540;13.604;2022-11-15T08:07:22;50.53;;;28.10;;
31282;SDS011;17915;52.540;13.604;2022-11-15T08:09:48;47.93;;;27.10;;
31282;SDS011;17915;52.540;13.604;2022-11-15T08:12:14;51.20;;;28.07;;
31282;SDS011;17915;52.540;13.604;2022-11-15T08:14:39;47.77;;;29.30;;
31282;SDS011;17915;52.540;13.604;2022-11-15T08:17:04;44.97;;;27.80;;
31282;SDS011;17915;52.540;13.604;2022-11-15T08:19:30;48.63;;;29.13;;
31282;SDS011;17915;52.540;13.604;2022-11-15T08:21:55;49.67;;;27.17;;
31282;SDS011;17915;52.540;13.604;2022-11-15T08:24:20;48.10;;;29.57;;
31282;SDS011;17915;52.540;13.604;2022-11-15T08:26:46;41.83;;;25.93;;
31282;SDS011;17915;52.540;13.604;2022-11-15T08:29:12;44.83;;;27.48;;
31282;SDS011;17915;52.540;13.604;2022-11-15T08:31:37;48.17;;;28.00;;
31282;SDS011;17915;52.540;13.604;2022-11-15T08:34:03;50.03;;;28.27;;
31282;SDS011;17915;52.540;13.604;2022-11-15T08:36:29;45.35;;;29.33;;
31282;SDS011;17915;52.540;13.604;2022-11-15T08:38:54;49.37;;;28.23;;
31282;SDS011;17915;52.540;13.604;2022-11-15T08:41:24;45.87;;;28.27;;
31282;SDS011;17915;52.540;13.604;2022-11-15T08:43:52;46.25;;;27.98;;
31282;SDS011;17915;52.540;13.604;2022-11-15T08:46:17;46.27;;;27.40;;
31282;SDS011;17915;52.540;13.604;2022-11-15T08:48:44;43.15;;;26.42;;
31282;SDS011;17915;52.540;13.604;2022-11-15T08:51:09;43.50;;;27.10;;
31282;SDS011;17915;52.540;13.604;2022-11-15T08:53:34;43.33;;;26.90;;
31282;SDS011;17915;52.540;13.604;2022-11-15T08:56:00;45.30;;;26.67;;
31282;SDS011;17915;52.540;13.604;2022-11-15T08:58:25;45.83;;;26.63;;
31282;SDS011;17915;52.540;13.604;2022-11-15T09:00:51;45.27;;;28.23;;
31282;SDS011;17915;52.540;13.604;2022-11-15T09:03:16;58.40;;;30.10;;
31282;SDS011;17915;52.540;13.604;2022-11-15T09:05:42;47.53;;;28.57;;
31282;SDS011;17915;52.540;13.604;2022-11-15T09:08:07;53.95;;;29.13;;
31282;SDS011;17915;52.540;13.604;2022-11-15T09:10:33;42.27;;;24.47;;
31282;SDS011;17915;52.540;13.604;2022-11-15T09:12:58;37.43;;;25.47;;
31282;SDS011;17915;52.540;13.604;2022-11-15T09:15:24;47.97;;;25.10;;
31282;SDS011;17915;52.540;13.604;2022-11-15T09:17:49;43.97;;;26.27;;
31282;SDS011;17915;52.540;13.604;2022-11-15T09:20:15;40.53;;;24.60;;
31282;SDS011;17915;52.540;13.604;2022-11-15T09:22:40;39.57;;;25.23;;
31282;SDS011;17915;52.540;13.604;2022-11-15T09:25:06;40.60;;;25.03;;
31282;SDS011;17915;52.540;13.604;2022-11-15T09:27:32;42.38;;;25.80;;
31282;SDS011;17915;52.540;13.604;2022-11-15T09:29:57;50.33;;;25.63;;
31282;SDS011;17915;52.540;13.604;2022-11-15T09:32:23;41.83;;;24.33;;
31282;SDS011;17915;52.540;13.604;2022-11-15T09:34:51;42.53;;;22.97;;
31282;SDS011;17915;52.540;13.604;2022-11-15T09:37:16;39.60;;;26.25;;
31282;SDS011;17915;52.540;13.604;2022-11-15T09:39:42;40.83;;;23.13;;
31282;SDS011;17915;52.540;13.604;2022-11-15T09:47:40;40.92;;;26.02;;
31282;SDS011;17915;52.540;13.604;2022-11-15T09:50:27;43.33;;;26.35;;
31282;SDS011;17915;52.540;13.604;2022-11-15T09:52:56;39.85;;;24.20;;
31282;SDS011;17915;52.540;13.604;2022-11-15T09:55:21;35.63;;;22.67;;
31282;SDS011;17915;52.540;13.604;2022-11-15T10:00:37;34.28;;;23.00;;
31282;SDS011;17915;52.540;13.604;2022-11-15T10:06:04;33.15;;;22.70;;
31282;SDS011;17915;52.540;13.604;2022-11-15T10:11:15;37.38;;;21.55;;
31282;SDS011;17915;52.540;13.604;2022-11-15T10:13:44;36.88;;;21.83;;
31282;SDS011;17915;52.540;13.604;2022-11-15T10:18:49;28.67;;;19.60;;
31282;SDS011;17915;52.540;13.604;2022-11-15T10:21:23;32.70;;;20.80;;
31282;SDS011;17915;52.540;13.604;2022-11-15T10:23:53;35.25;;;22.08;;
31282;SDS011;17915;52.540;13.604;2022-11-15T10:26:19;39.53;;;23.75;;
31282;SDS011;17915;52.540;13.604;2022-11-15T10:28:44;32.50;;;21.90;;
31282;SDS011;17915;52.540;13.604;2022-11-15T10:31:28;37.80;;;25.70;;
31282;SDS011;17915;52.540;13.604;2022-11-15T10:34:27;34.30;;;21.67;;
31282;SDS011;17915;52.540;13.604;2022-11-15T10:36:56;29.23;;;19.83;;
31282;SDS011;17915;52.540;13.604;2022-11-15T10:39:22;29.80;;;19.58;;
31282;SDS011;17915;52.540;13.604;2022-11-15T10:41:48;38.20;;;22.00;;
31282;SDS011;17915;52.540;13.604;2022-11-15T10:44:18;30.02;;;20.52;;
31282;SDS011;17915;52.540;13.604;2022-11-15T10:46:47;32.95;;;20.17;;
31282;SDS011;17915;52.540;13.604;2022-11-15T10:49:22;29.48;;;20.60;;
31282;SDS011;17915;52.540;13.604;2022-11-15T10:51:55;27.10;;;20.60;;
31282;SDS011;17915;52.540;13.604;2022-11-15T10:54:58;28.23;;;18.73;;
31282;SDS011;17915;52.540;13.604;2022-11-15T10:57:26;26.67;;;18.80;;
31282;SDS011;17915;52.540;13.604;2022-11-15T10:59:54;28.65;;;18.55;;
31282;SDS011;17915;52.540;13.604;2022-11-15T11:04:57;27.98;;;17.90;;
31282;SDS011;17915;52.540;13.604;2022-11-15T11:07:25;22.58;;;16.83;;
31282;SDS011;17915;52.540;13.604;2022-11-15T11:10:04;33.08;;;19.08;;
31282;SDS011;17915;52.540;13.604;2022-11-15T11:12:44;26.52;;;17.65;;
31282;SDS011;17915;52.540;13.604;2022-11-15T11:15:11;33.53;;;21.70;;
31282;SDS011;17915;52.540;13.604;2022-11-15T11:25:34;24.70;;;17.27;;
31282;SDS011;17915;52.540;13.604;2022-11-15T11:31:07;22.58;;;16.23;;
31282;SDS011;17915;52.540;13.604;2022-11-15T11:36:36;24.58;;;17.02;;
31282;SDS011;17915;52.540;13.604;2022-11-15T11:44:44;32.38;;;18.50;;
31282;SDS011;17915;52.540;13.604;2022-11-15T11:47:32;29.77;;;17.08;;
31282;SDS011;17915;52.540;13.604;2022-11-15T11:50:23;25.42;;;17.50;;
31282;SDS011;17915;52.540;13.604;2022-11-15T11:58:17;22.35;;;16.48;;
31282;SDS011;17915;52.540;13.604;2022-11-15T12:00:52;24.95;;;15.63;;
31282;SDS011;17915;52.540;13.604;2022-11-15T12:03:25;24.80;;;17.02;;
31282;SDS011;17915;52.540;13.604;2022-11-15T12:05:56;24.27;;;16.83;;
31282;SDS011;17915;52.540;13.604;2022-11-15T12:08:36;22.67;;;16.65;;
31282;SDS011;17915;52.540;13.604;2022-11-15T12:11:15;23.58;;;16.20;;
31282;SDS011;17915;52.540;13.604;2022-11-15T12:13:45;20.55;;;15.75;;
31282;SDS011;17915;52.540;13.604;2022-11-15T12:18:50;18.00;;;14.68;;
31282;SDS011;17915;52.540;13.604;2022-11-15T12:22:02;24.45;;;15.18;;
31282;SDS011;17915;52.540;13.604;2022-11-15T12:24:08;19.33;;;14.65;;
31282;SDS011;17915;52.540;13.604;2022-11-15T12:26:52;20.60;;;13.93;;
31282;SDS011;17915;52.540;13.604;2022-11-15T12:31:51;23.67;;;14.88;;
31282;SDS011;17915;52.540;13.604;2022-11-15T12:36:46;20.50;;;15.27;;
31282;SDS011;17915;52.540;13.604;2022-11-15T12:39:12;21.77;;;14.15;;
31282;SDS011;17915;52.540;13.604;2022-11-15T12:44:04;21.50;;;12.63;;
31282;SDS011;17915;52.540;13.604;2022-11-15T12:48:59;20.33;;;13.57;;
31282;SDS011;17915;52.540;13.604;2022-11-15T12:54:48;19.80;;;13.20;;
31282;SDS011;17915;52.540;13.604;2022-11-15T13:02:26;16.33;;;13.30;;
31282;SDS011;17915;52.540;13.604;2022-11-15T13:10:45;18.63;;;14.45;;
31282;SDS011;17915;52.540;13.604;2022-11-15T13:12:56;37.70;;;15.13;;
31282;SDS011;17915;52.540;13.604;2022-11-15T13:15:33;17.33;;;11.75;;
31282;SDS011;17915;52.540;13.604;2022-11-15T13:18:34;24.20;;;13.20;;
31282;SDS011;17915;52.540;13.604;2022-11-15T13:21:04;18.88;;;12.52;;
31282;SDS011;17915;52.540;13.604;2022-11-15T13:24:03;15.60;;;11.73;;
31282;SDS011;17915;52.540;13.604;2022-11-15T13:26:28;23.63;;;16.53;;
31282;SDS011;17915;52.540;13.604;2022-11-15T13:28:54;21.63;;;14.53;;
31282;SDS011;17915;52.540;13.604;2022-11-15T13:31:25;17.02;;;14.10;;
31282;SDS011;17915;52.540;13.604;2022-11-15T13:33:52;21.38;;;13.65;;
31282;SDS011;17915;52.540;13.604;2022-11-15T13:36:29;20.38;;;11.52;;
31282;SDS011;17915;52.540;13.604;2022-11-15T13:39:04;23.35;;;16.67;;
31282;SDS011;17915;52.540;13.604;2022-11-15T13:41:32;26.75;;;15.13;;
31282;SDS011;17915;52.540;13.604;2022-11-15T13:44:02;23.40;;;14.77;;
31282;SDS011;17915;52.540;13.604;2022-11-15T13:46:29;23.13;;;15.18;;
31282;SDS011;17915;52.540;13.604;2022-11-15T13:51:52;28.95;;;17.08;;
31282;SDS011;17915;52.540;13.604;2022-11-15T13:56:49;22.70;;;16.15;;
31282;SDS011;17915;52.540;13.604;2022-11-15T13:59:28;22.52;;;15.45;;
31282;SDS011;17915;52.540;13.604;2022-11-15T14:01:56;30.17;;;18.00;;
31282;SDS011;17915;52.540;13.604;2022-11-15T14:04:24;26.15;;;16.85;;
31282;SDS011;17915;52.540;13.604;2022-11-15T14:06:52;22.08;;;15.15;;
31282;SDS011;17915;52.540;13.604;2022-11-15T14:12:21;23.42;;;15.15;;
31282;SDS011;17915;52.540;13.604;2022-11-15T14:14:55;22.25;;;14.25;;
31282;SDS011;17915;52.540;13.604;2022-11-15T14:19:55;24.92;;;13.85;;
31282;SDS011;17915;52.540;13.604;2022-11-15T14:25:03;21.90;;;13.82;;
31282;SDS011;17915;52.540;13.604;2022-11-15T14:27:30;25.90;;;15.25;;
31282;SDS011;17915;52.540;13.604;2022-11-15T14:29:56;29.95;;;17.67;;
31282;SDS011;17915;52.540;13.604;2022-11-15T14:32:22;37.93;;;15.70;;
31282;SDS011;17915;52.540;13.604;2022-11-15T14:34:53;26.70;;;15.30;;
31282;SDS011;17915;52.540;13.604;2022-11-15T14:39:52;21.83;;;14.60;;
31282;SDS011;17915;52.540;13.604;2022-11-15T14:42:18;23.95;;;15.27;;
31282;SDS011;17915;52.540;13.604;2022-11-15T14:44:44;20.13;;;14.57;;
31282;SDS011;17915;52.540;13.604;2022-11-15T14:47:10;22.63;;;16.40;;
31282;SDS011;17915;52.540;13.604;2022-11-15T14:49:35;24.37;;;15.40;;
31282;SDS011;17915;52.540;13.604;2022-11-15T14:52:01;29.33;;;16.97;;
31282;SDS011;17915;52.540;13.604;2022-11-15T14:54:26;28.00;;;17.03;;
31282;SDS011;17915;52.540;13.604;2022-11-15T14:56:51;33.47;;;17.60;;
31282;SDS011;17915;52.540;13.604;2022-11-15T14:59:17;30.20;;;19.90;;
31282;SDS011;17915;52.540;13.604;2022-11-15T15:01:42;27.90;;;17.80;;
31282;SDS011;17915;52.540;13.604;2022-11-15T15:04:09;33.83;;;17.13;;
31282;SDS011;17915;52.540;13.604;2022-11-15T15:06:35;34.05;;;19.35;;
31282;SDS011;17915;52.540;13.604;2022-11-15T15:09:00;41.73;;;19.63;;
31282;SDS011;17915;52.540;13.604;2022-11-15T15:11:26;33.37;;;19.73;;
31282;SDS011;17915;52.540;13.604;2022-11-15T15:13:53;29.58;;;18.25;;
31282;SDS011;17915;52.540;13.604;2022-11-15T15:16:21;30.90;;;20.80;;
31282;SDS011;17915;52.540;13.604;2022-11-15T15:18:47;29.67;;;18.23;;
31282;SDS011;17915;52.540;13.604;2022-11-15T15:21:20;30.40;;;17.67;;
31282;SDS011;17915;52.540;13.604;2022-11-15T15:23:53;32.83;;;19.40;;
31282;SDS011;17915;52.540;13.604;2022-11-15T15:26:19;30.55;;;19.38;;
31282;SDS011;17915;52.540;13.604;2022-11-15T15:28:45;31.60;;;18.95;;
31282;SDS011;17915;52.540;13.604;2022-11-15T15:31:10;32.83;;;19.87;;
31282;SDS011;17915;52.540;13.604;2022-11-15T15:33:36;30.33;;;17.80;;
31282;SDS011;17915;52.540;13.604;2022-11-15T15:36:02;26.48;;;16.83;;
31282;SDS011;17915;52.540;13.604;2022-11-15T15:38:28;32.10;;;19.80;;
31282;SDS011;17915;52.540;13.604;2022-11-15T15:40:54;31.83;;;19.00;;
31282;SDS011;17915;52.540;13.604;2022-11-15T15:43:20;41.22;;;22.00;;
31282;SDS011;17915;52.540;13.604;2022-11-15T15:45:45;36.70;;;20.67;;
31282;SDS011;17915;52.540;13.604;2022-11-15T15:48:11;35.33;;;20.43;;
31282;SDS011;17915;52.540;13.604;2022-11-15T15:50:38;33.88;;;21.00;;
31282;SDS011;17915;52.540;13.604;2022-11-15T15:53:04;40.40;;;23.98;;
31282;SDS011;17915;52.540;13.604;2022-11-15T15:55:30;35.33;;;22.70;;
31282;SDS011;17915;52.540;13.604;2022-11-15T15:57:56;37.70;;;23.27;;
31282;SDS011;17915;52.540;13.604;2022-11-15T16:00:22;43.83;;;24.87;;
31282;SDS011;17915;52.540;13.604;2022-11-15T16:02:48;38.10;;;23.50;;
31282;SDS011;17915;52.540;13.604;2022-11-15T16:05:14;42.23;;;25.07;;
31282;SDS011;17915;52.540;13.604;2022-11-15T16:07:39;45.67;;;27.00;;
31282;SDS011;17915;52.540;13.604;2022-11-15T16:10:24;49.65;;;27.98;;
31282;SDS011;17915;52.540;13.604;2022-11-15T16:12:51;57.08;;;28.77;;
31282;SDS011;17915;52.540;13.604;2022-11-15T16:15:18;52.65;;;30.02;;
31282;SDS011;17915;52.540;13.604;2022-11-15T16:17:46;53.58;;;31.15;;
31282;SDS011;17915;52.540;13.604;2022-11-15T16:22:48;56.15;;;31.20;;
31282;SDS011;17915;52.540;13.604;2022-11-15T16:25:13;51.00;;;30.33;;
31282;SDS011;17915;52.540;13.604;2022-11-15T16:27:39;52.97;;;30.97;;
31282;SDS011;17915;52.540;13.604;2022-11-15T16:30:19;51.80;;;30.52;;